createdAt,value
2022-10-11T00:02:47.445Z,2.70
2022-10-11T00:07:52.182Z,2.00
2022-10-11T00:12:55.118Z,1.80
2022-10-11T00:18:01.040Z,1.87
2022-10-11T00:23:07.734Z,1.83
2022-10-11T00:28:10.739Z,2.83
2022-10-11T00:33:13.693Z,2.27
2022-10-11T00:38:18.440Z,2.63
2022-10-11T00:43:24.477Z,2.43
2022-10-11T00:48:34.430Z,2.33
2022-10-11T00:53:38.730Z,2.60
2022-10-11T00:58:42.608Z,1.83
2022-10-11T01:03:46.190Z,2.03
2022-10-11T01:08:53.095Z,1.40
2022-10-11T01:14:11.967Z,2.07
2022-10-11T01:19:31.204Z,2.50
2022-10-11T01:25:02.864Z,2.30
2022-10-11T01:30:26.134Z,2.07
2022-10-11T01:35:34.830Z,1.90
2022-10-11T01:40:43.449Z,1.90
2022-10-11T01:45:51.724Z,1.70
2022-10-11T01:50:56.944Z,1.90
2022-10-11T01:56:09.884Z,1.70
2022-10-11T02:01:23.562Z,1.60
2022-10-11T02:06:33.859Z,1.37
2022-10-11T02:11:37.878Z,1.40
2022-10-11T02:16:47.386Z,1.20
2022-10-11T02:21:55.712Z,1.60
2022-10-11T02:27:01.272Z,1.50
2022-10-11T02:32:07.146Z,1.60
2022-10-11T02:37:16.651Z,1.37
2022-10-11T02:42:26.474Z,1.53
2022-10-11T02:47:32.631Z,1.30
2022-10-11T02:52:35.784Z,1.47
2022-10-11T02:57:38.738Z,1.10
2022-10-11T03:02:43.056Z,1.47
2022-10-11T03:07:46.335Z,1.67
2022-10-11T03:12:49.218Z,1.60
2022-10-11T03:17:53.525Z,1.50
2022-10-11T03:22:56.627Z,1.77
2022-10-11T03:27:59.480Z,1.27
2022-10-11T03:33:04.262Z,1.73
2022-10-11T03:38:11.110Z,1.53
2022-10-11T03:43:15.856Z,1.40
2022-10-11T03:48:20.475Z,1.37
2022-10-11T03:53:23.466Z,1.10
2022-10-11T03:58:26.336Z,1.20
2022-10-11T04:03:30.916Z,1.27
2022-10-11T04:08:34.050Z,1.70
2022-10-11T04:13:37.746Z,1.70
2022-10-11T04:18:42.422Z,1.83
2022-10-11T04:23:45.452Z,1.87
2022-10-11T04:28:49.633Z,1.90
2022-10-11T04:33:54.056Z,1.50
2022-10-11T04:38:57.059Z,1.90
2022-10-11T04:44:00.078Z,2.43
2022-10-11T04:49:04.326Z,1.90
2022-10-11T04:54:07.201Z,2.47
2022-10-11T04:59:10.248Z,2.40
2022-10-11T05:04:14.643Z,2.20
2022-10-11T05:09:17.519Z,1.70
2022-10-11T05:14:20.710Z,2.13
2022-10-11T05:19:24.967Z,2.17
2022-10-11T05:24:29.060Z,2.20
2022-10-11T05:29:32.021Z,2.30
2022-10-11T05:34:36.348Z,2.73
2022-10-11T05:39:39.492Z,2.90
2022-10-11T05:44:42.818Z,3.07
2022-10-11T05:49:47.188Z,3.70
2022-10-11T05:54:50.281Z,2.83
2022-10-11T05:59:53.158Z,3.80
2022-10-11T06:04:57.513Z,3.17
2022-10-11T06:10:00.688Z,2.53
2022-10-11T06:15:04.007Z,3.00
2022-10-11T06:20:09.883Z,2.87
2022-10-11T06:25:13.041Z,2.67
2022-10-11T06:30:15.964Z,2.30
2022-10-11T06:35:20.371Z,3.70
2022-10-11T06:40:23.347Z,4.03
2022-10-11T06:45:26.594Z,4.03
2022-10-11T06:50:58.067Z,3.93
2022-10-11T06:55:53.730Z,3.43
2022-10-11T07:01:00.321Z,3.70
2022-10-11T07:06:06.785Z,3.40
2022-10-11T07:11:11.881Z,3.00
2022-10-11T07:16:14.955Z,4.20
2022-10-11T07:21:20.485Z,3.30
2022-10-11T07:26:23.459Z,3.97
2022-10-11T07:31:27.357Z,3.60
2022-10-11T07:36:31.815Z,3.83
2022-10-11T07:41:34.956Z,3.93
2022-10-11T07:46:37.991Z,3.87
2022-10-11T07:51:42.520Z,4.03
2022-10-11T07:56:45.510Z,3.50
2022-10-11T08:01:48.607Z,3.13
2022-10-11T08:06:53.612Z,3.67
2022-10-11T08:11:56.575Z,3.87
2022-10-11T08:16:59.710Z,3.47
2022-10-11T08:22:04.451Z,4.33
2022-10-11T08:27:07.398Z,3.30
2022-10-11T08:32:12.326Z,3.50
2022-10-11T08:37:16.788Z,3.80
2022-10-11T08:42:28.961Z,4.13
2022-10-11T08:47:36.584Z,3.13
2022-10-11T08:52:49.509Z,3.70
2022-10-11T08:57:55.860Z,3.13
2022-10-11T09:03:09.488Z,3.30
2022-10-11T09:08:22.527Z,3.00
2022-10-11T09:13:43.756Z,2.60
2022-10-11T09:19:17.904Z,3.47
2022-10-11T09:24:39.026Z,2.87
2022-10-11T09:29:55.591Z,2.77
2022-10-11T09:35:02.844Z,2.90
2022-10-11T09:40:21.500Z,2.40
2022-10-11T09:45:25.161Z,3.07
2022-10-11T09:50:30.739Z,1.97
2022-10-11T09:55:40.586Z,2.87
2022-10-11T10:00:43.637Z,2.60
2022-10-11T10:05:46.673Z,2.10
2022-10-11T10:11:00.459Z,2.67
2022-10-11T10:16:04.313Z,2.38
2022-10-11T10:21:13.417Z,2.33
2022-10-11T10:26:19.921Z,2.22
2022-10-11T10:31:24.625Z,2.15
2022-10-11T10:36:30.557Z,2.50
2022-10-11T10:41:36.026Z,2.60
2022-10-11T10:46:55.850Z,2.22
2022-10-11T10:52:19.889Z,2.45
2022-10-11T10:57:29.631Z,1.65
2022-10-11T11:02:42.164Z,2.42
2022-10-11T11:07:50.413Z,2.03
2022-10-11T11:13:06.580Z,2.42
2022-10-11T11:18:26.756Z,1.95
2022-10-11T11:23:41.794Z,2.28
2022-10-11T11:29:06.001Z,2.20
2022-10-11T11:34:21.767Z,2.15
2022-10-11T11:39:27.462Z,1.95
2022-10-11T11:44:33.934Z,2.50
2022-10-11T11:49:39.537Z,1.75
2022-10-11T11:54:49.696Z,1.80
2022-10-11T12:00:00.730Z,1.85
2022-10-11T12:05:06.438Z,1.83
2022-10-11T12:10:27.300Z,2.08
2022-10-11T12:15:31.723Z,2.42
2022-10-11T12:20:38.121Z,2.42
2022-10-11T12:25:44.771Z,1.98
2022-10-11T12:30:54.607Z,2.70
2022-10-11T12:36:05.679Z,2.10
2022-10-11T12:41:45.974Z,2.10
2022-10-11T12:47:28.355Z,1.73
2022-10-11T12:52:40.356Z,2.38
2022-10-11T12:58:00.879Z,2.08
2022-10-11T13:03:31.806Z,2.05
2022-10-11T13:08:40.272Z,1.98
2022-10-11T13:13:47.242Z,2.17
2022-10-11T13:18:56.752Z,2.22
2022-10-11T13:24:01.795Z,1.80
2022-10-11T13:29:04.917Z,2.10
2022-10-11T13:34:13.727Z,2.53
2022-10-11T13:39:31.221Z,2.13
2022-10-11T13:44:35.469Z,2.17
2022-10-11T13:49:40.251Z,2.42
2022-10-11T13:54:56.090Z,2.38
2022-10-11T14:00:02.419Z,2.55
2022-10-11T14:05:27.158Z,2.42
2022-10-11T14:10:30.774Z,2.30
2022-10-11T14:15:35.733Z,2.55
2022-10-11T14:20:41.837Z,2.58
2022-10-11T14:25:44.865Z,2.88
2022-10-11T14:30:48.134Z,3.10
2022-10-11T14:35:52.823Z,3.15
2022-10-11T14:40:55.749Z,2.25
2022-10-11T14:45:58.778Z,3.35
2022-10-11T14:51:04.440Z,3.28
2022-10-11T14:56:08.310Z,2.55
2022-10-11T15:01:14.042Z,3.30
2022-10-11T15:06:21.767Z,3.03
2022-10-11T15:11:25.104Z,2.78
2022-10-11T15:16:28.313Z,3.00
2022-10-11T15:21:33.290Z,2.92
2022-10-11T15:26:36.277Z,3.78
2022-10-11T15:31:39.483Z,3.28
2022-10-11T15:36:43.910Z,3.20
2022-10-11T15:41:46.888Z,4.65
2022-10-11T15:46:49.968Z,3.85
2022-10-11T15:51:54.258Z,4.45
2022-10-11T15:56:57.203Z,3.57
2022-10-11T16:02:00.153Z,3.88
2022-10-11T16:07:04.552Z,3.00
2022-10-11T16:12:08.084Z,3.43
2022-10-11T16:17:11.071Z,2.57
2022-10-11T16:22:15.796Z,2.45
2022-10-11T16:27:19.102Z,2.93
2022-10-11T16:32:22.857Z,2.60
2022-10-11T16:37:27.322Z,2.60
2022-10-11T16:42:31.095Z,3.10
2022-10-11T16:47:34.224Z,3.47
2022-10-11T16:52:38.677Z,2.80
2022-10-11T16:57:41.680Z,3.43
2022-10-11T17:02:44.919Z,2.23
2022-10-11T17:07:49.261Z,3.10
2022-10-11T17:12:52.174Z,3.40
2022-10-11T17:17:56.585Z,3.53
2022-10-11T17:23:00.957Z,3.03
2022-10-11T17:28:03.950Z,3.20
2022-10-11T17:33:07.026Z,2.17
2022-10-11T17:38:11.590Z,3.20
2022-10-11T17:43:15.893Z,3.10
2022-10-11T17:48:18.938Z,3.00
2022-10-11T17:53:23.406Z,2.77
2022-10-11T17:58:27.610Z,2.50
2022-10-11T18:03:30.608Z,2.63
2022-10-11T18:08:40.244Z,3.47
2022-10-11T18:13:46.471Z,2.90
2022-10-11T18:18:50.227Z,2.37
2022-10-11T18:23:55.166Z,2.70
2022-10-11T18:28:58.152Z,3.23
2022-10-11T18:34:01.233Z,2.80
2022-10-11T18:39:08.302Z,2.83
2022-10-11T18:44:15.195Z,3.50
2022-10-11T18:49:18.433Z,2.57
2022-10-11T18:54:22.839Z,2.80
2022-10-11T18:59:25.831Z,2.47
2022-10-11T19:04:33.256Z,2.90
2022-10-11T19:09:38.146Z,2.60
2022-10-11T19:14:41.089Z,2.97
2022-10-11T19:19:44.390Z,2.73
2022-10-11T19:24:48.800Z,3.00
2022-10-11T19:29:52.179Z,2.67
2022-10-11T19:34:55.335Z,2.57
2022-10-11T19:39:59.940Z,3.07
2022-10-11T19:45:03.102Z,3.47
2022-10-11T19:50:07.065Z,3.70
2022-10-11T19:55:11.837Z,3.50
2022-10-11T20:00:16.164Z,3.43
2022-10-11T20:05:19.793Z,4.13
2022-10-11T20:10:24.618Z,3.70
2022-10-11T20:15:27.679Z,3.43
2022-10-11T20:20:32.103Z,3.50
2022-10-11T20:25:37.016Z,3.43
2022-10-11T20:30:43.815Z,3.33
2022-10-11T20:35:57.393Z,3.33
2022-10-11T20:41:06.485Z,3.40
2022-10-11T20:46:14.398Z,3.60
2022-10-11T20:51:18.475Z,3.90
2022-10-11T20:56:23.541Z,3.50
2022-10-11T21:01:28.182Z,3.83
2022-10-11T21:06:32.691Z,3.67
2022-10-11T21:11:37.004Z,4.10
2022-10-11T21:16:40.159Z,3.80
2022-10-11T21:21:43.857Z,3.83
2022-10-11T21:26:48.159Z,4.07
2022-10-11T21:31:51.046Z,3.90
2022-10-11T21:36:53.957Z,3.90
2022-10-11T21:41:58.391Z,4.00
2022-10-11T21:47:07.045Z,3.90
2022-10-11T21:52:11.043Z,3.90
2022-10-11T21:57:15.346Z,3.60
2022-10-11T22:02:18.468Z,3.83
2022-10-11T22:07:21.385Z,3.30
2022-10-11T22:12:25.594Z,4.10
2022-10-11T22:17:28.467Z,3.87
2022-10-11T22:22:31.509Z,3.73
2022-10-11T22:27:35.831Z,4.17
2022-10-11T22:32:38.808Z,3.60
2022-10-11T22:37:41.994Z,4.60
2022-10-11T22:42:46.378Z,5.30
2022-10-11T22:47:49.301Z,4.93
2022-10-11T22:52:52.159Z,3.80
2022-10-11T22:57:56.433Z,4.20
2022-10-11T23:02:59.719Z,3.50
2022-10-11T23:08:02.783Z,4.53
2022-10-11T23:13:07.092Z,3.93
2022-10-11T23:18:10.075Z,3.70
2022-10-11T23:23:12.999Z,3.30
2022-10-11T23:28:17.297Z,2.90
2022-10-11T23:33:20.658Z,3.03
2022-10-11T23:38:23.775Z,2.60
2022-10-11T23:43:28.687Z,3.40
2022-10-11T23:48:31.607Z,3.63
2022-10-11T23:53:34.979Z,3.00
2022-10-11T23:58:39.642Z,2.90
